Time;durP1;ratioP1;P1;durP2;ratioP2;P2;SDS_P1;SDS_P2;PMS_P1;PMS_P2;Temp;Humidity;BMP_temperature;BMP_pressure;BME280_temperature;BME280_humidity;BME280_pressure;Samples;Min_cycle;Max_cycle;Signal;HPM_P1;HPM_P2
2021/06/07 00:00:33;;;;;;;4.90;3.30;;;;;;;15.60;63.66;96994.08;127889;1090;27578;-88
2021/06/07 00:03:23;;;;;;;;;;;;;;;15.65;63.86;96993.20;127823;1090;113356;-87
2021/06/07 00:05:54;;;;;;;6.20;3.65;;;;;;;15.63;63.48;96990.03;127847;1090;24197;-86
2021/06/07 00:08:25;;;;;;;4.10;3.43;;;;;;;15.67;63.86;96996.35;127810;1090;113495;-88
2021/06/07 00:10:56;;;;;;;6.33;4.10;;;;;;;15.63;63.72;96996.17;127903;1091;24910;-87
2021/06/07 00:13:27;;;;;;;4.60;3.98;;;;;;;15.57;63.77;97004.55;127780;1090;114093;-87
2021/06/07 00:16:00;;;;;;;5.50;4.00;;;;;;;15.53;64.11;97006.25;127908;1090;22953;-87
2021/06/07 00:18:32;;;;;;;5.43;4.17;;;;;;;15.53;64.24;97000.91;127908;1090;22767;-87
2021/06/07 00:21:13;;;;;;;5.85;3.73;;;;;;;15.48;64.20;96998.33;127773;1091;113762;-89
2021/06/07 00:23:46;;;;;;;7.28;3.98;;;;;;;15.24;64.29;97001.24;127869;1093;22901;-87
2021/06/07 00:26:17;;;;;;;4.98;3.70;;;;;;;15.04;64.66;96992.53;127860;1090;114127;-88
2021/06/07 00:28:48;;;;;;;3.50;3.03;;;;;;;14.97;64.81;96999.37;127931;1090;22811;-88
2021/06/07 00:31:19;;;;;;;5.60;3.83;;;;;;;14.93;65.12;96995.72;127807;1090;114118;-89
2021/06/07 00:33:51;;;;;;;4.30;3.38;;;;;;;15.03;65.35;97001.63;127857;1090;22835;-87
2021/06/07 00:36:22;;;;;;;4.95;3.48;;;;;;;15.01;65.39;96998.47;127843;1090;24433;-87
2021/06/07 00:38:54;;;;;;;5.63;3.75;;;;;;;14.97;65.46;97000.16;127768;1090;113676;-89
2021/06/07 00:41:25;;;;;;;4.53;3.45;;;;;;;14.88;65.59;96999.25;127888;1090;28025;-88
2021/06/07 00:43:59;;;;;;;5.05;4.05;;;;;;;14.87;65.50;96994.22;127783;1091;114009;-88
2021/06/07 00:46:30;;;;;;;5.28;3.88;;;;;;;14.93;65.66;96996.51;127891;1090;26534;-87
2021/06/07 00:49:01;;;;;;;4.93;3.70;;;;;;;14.98;65.75;96982.26;127876;1089;22813;-87
2021/06/07 00:51:33;;;;;;;4.73;3.45;;;;;;;14.92;65.80;96994.11;127807;1090;113762;-88
2021/06/07 00:54:05;;;;;;;6.70;4.37;;;;;;;14.78;65.91;96994.13;127860;1093;22867;-88
2021/06/07 00:56:36;;;;;;;5.55;4.13;;;;;;;14.75;66.05;96989.36;127749;1090;113758;-90
2021/06/07 00:59:09;;;;;;;5.93;3.78;;;;;;;14.71;66.00;96994.50;127876;1090;23038;-88
2021/06/07 01:01:40;;;;;;;6.28;4.05;;;;;;;14.71;66.48;96986.49;127817;1090;114353;-87
2021/06/07 01:04:11;;;;;;;5.95;4.00;;;;;;;14.67;66.43;96982.05;127873;1090;22819;-88
2021/06/07 01:06:42;;;;;;;5.05;3.68;;;;;;;14.65;66.56;96979.68;127822;1090;39880;-90
2021/06/07 01:09:13;;;;;;;5.90;3.80;;;;;;;14.42;66.48;96985.92;127744;1093;113667;-91
2021/06/07 01:11:44;;;;;;;5.85;3.70;;;;;;;14.24;66.90;96985.69;127844;1090;52481;-87
2021/06/07 01:14:15;;;;;;;6.25;3.90;;;;;;;14.14;67.23;96979.72;127896;1088;113669;-87
2021/06/07 01:16:46;;;;;;;5.58;3.55;;;;;;;14.13;67.40;96973.59;127953;1090;22799;-87
2021/06/07 01:19:19;;;;;;;5.25;3.85;;;;;;;14.28;67.53;96980.55;127846;1090;113830;-87
2021/06/07 01:21:51;;;;;;;5.30;4.10;;;;;;;14.40;67.47;96978.22;128011;1093;22964;-87
2021/06/07 01:24:22;;;;;;;4.85;3.98;;;;;;;14.41;67.23;96984.34;127934;1090;22789;-87
2021/06/07 01:26:53;;;;;;;6.95;3.83;;;;;;;14.32;67.18;96986.09;127793;1093;115195;-86
2021/06/07 01:29:24;;;;;;;4.18;3.60;;;;;;;14.36;67.28;96982.56;127924;1090;22803;-88
2021/06/07 01:31:55;;;;;;;4.65;3.63;;;;;;;14.44;67.18;96983.78;127763;1089;113574;-87
2021/06/07 01:34:26;;;;;;;6.28;4.10;;;;;;;14.45;67.05;96986.16;127865;1091;25464;-89
2021/06/07 01:36:57;;;;;;;5.98;4.15;;;;;;;14.47;67.08;96977.85;127869;1090;26002;-87
2021/06/07 01:39:28;;;;;;;6.08;3.95;;;;;;;14.52;66.91;96983.12;127771;1092;113657;-90
2021/06/07 01:41:59;;;;;;;6.60;4.30;;;;;;;14.52;66.80;96985.78;127874;1090;31592;-86
2021/06/07 01:44:30;;;;;;;5.28;3.88;;;;;;;14.45;66.78;96974.69;127781;1090;113934;-86
2021/06/07 01:47:01;;;;;;;4.15;3.45;;;;;;;14.39;66.64;96984.64;127923;1090;22803;-87
2021/06/07 01:49:32;;;;;;;7.93;3.33;;;;;;;14.41;66.85;96979.80;127811;1090;114111;-86
2021/06/07 01:52:03;;;;;;;4.48;3.75;;;;;;;14.42;66.82;96980.59;127892;1090;26460;-87
2021/06/07 01:54:34;;;;;;;5.65;3.73;;;;;;;14.45;66.74;96980.02;127894;1093;26261;-87
2021/06/07 01:57:07;;;;;;;6.10;3.60;;;;;;;14.48;66.66;96985.56;127763;1090;113667;-89
2021/06/07 01:59:38;;;;;;;6.58;4.15;;;;;;;14.52;66.50;96988.45;127847;1093;22782;-87
2021/06/07 02:02:09;;;;;;;6.30;4.35;;;;;;;14.52;66.50;96985.78;127801;1090;114713;-89
2021/06/07 02:04:40;;;;;;;5.35;4.30;;;;;;;14.45;66.45;96985.36;127875;1090;22809;-88
2021/06/07 02:07:11;;;;;;;5.50;4.00;;;;;;;14.43;66.58;96987.50;127801;1090;114259;-87
2021/06/07 02:09:42;;;;;;;5.53;3.70;;;;;;;14.43;66.66;96988.30;127882;1090;24095;-88
2021/06/07 02:12:14;;;;;;;5.45;3.93;;;;;;;14.43;66.54;96982.17;127912;1090;22761;-88
2021/06/07 02:14:45;;;;;;;8.53;4.60;;;;;;;14.39;66.74;96981.18;127799;1090;113522;-87
2021/06/07 02:17:16;;;;;;;7.20;4.63;;;;;;;14.35;66.59;96980.95;127953;1090;22934;-88
2021/06/07 02:19:50;;;;;;;7.90;4.15;;;;;;;14.35;66.52;96977.49;127850;1090;113915;-87
2021/06/07 02:22:21;;;;;;;7.40;3.95;;;;;;;14.33;66.59;96975.13;127896;1093;24382;-89
2021/06/07 02:24:52;;;;;;;5.20;3.83;;;;;;;14.30;66.80;96977.59;127871;1090;22881;-88
2021/06/07 02:27:21;;;;;;;;;;;;;;;14.25;66.85;96968.60;127824;1090;114102;-87
2021/06/07 02:29:52;;;;;;;5.73;3.63;;;;;;;14.21;67.02;96974.79;127847;1090;24194;-86
2021/06/07 02:32:23;;;;;;;5.45;3.73;;;;;;;14.18;66.98;96972.72;127790;1091;113902;-86
2021/06/07 02:34:54;;;;;;;6.53;3.88;;;;;;;14.20;67.34;96976.66;127919;1090;22809;-88
2021/06/07 02:37:24;;;;;;;5.20;3.65;;;;;;;14.22;67.20;96973.73;127764;1090;115162;-86
2021/06/07 02:39:55;;;;;;;4.33;3.80;;;;;;;14.19;67.24;96977.75;127869;1090;26517;-88
2021/06/07 02:42:26;;;;;;;5.45;4.15;;;;;;;14.16;67.31;96973.01;127860;1090;22783;-87
2021/06/07 02:44:57;;;;;;;6.13;4.08;;;;;;;14.23;67.38;96975.31;127774;1090;112750;-89
2021/06/07 02:47:28;;;;;;;5.08;3.78;;;;;;;14.25;67.44;96970.48;127865;1090;22812;-92
2021/06/07 02:49:59;;;;;;;6.80;3.83;;;;;;;14.30;67.32;96966.92;127791;1090;114123;-88
2021/06/07 02:52:31;;;;;;;4.55;3.60;;;;;;;14.36;67.17;96961.22;127841;1090;25003;-87
2021/06/07 02:55:02;;;;;;;5.03;3.78;;;;;;;14.41;67.13;96963.80;127853;1090;29760;-88
2021/06/07 02:57:32;;;;;;;6.20;3.80;;;;;;;14.43;67.09;96961.62;127765;1090;114338;-89
2021/06/07 03:00:04;;;;;;;7.98;4.30;;;;;;;14.46;66.96;96962.94;127895;1090;25566;-86
2021/06/07 03:02:36;;;;;;;7.60;4.38;;;;;;;14.47;67.02;96964.52;127812;1093;114748;-86
2021/06/07 03:05:08;;;;;;;5.70;4.40;;;;;;;14.47;66.95;96964.52;127884;1090;22803;-86
2021/06/07 03:07:39;;;;;;;5.15;3.83;;;;;;;14.47;66.94;96967.18;127799;1090;114198;-88
2021/06/07 03:10:13;;;;;;;4.95;3.68;;;;;;;14.49;66.96;96963.13;127886;1093;23621;-88
2021/06/07 03:12:44;;;;;;;4.03;3.63;;;;;;;14.54;66.95;96967.60;127901;1090;24400;-87
2021/06/07 03:15:18;;;;;;;5.33;4.15;;;;;;;14.57;66.77;96968.88;127785;1090;114231;-88
2021/06/07 03:17:49;;;;;;;4.50;3.80;;;;;;;14.64;67.01;96963.94;127950;1090;22813;-88
2021/06/07 03:20:22;;;;;;;6.30;4.00;;;;;;;14.69;66.79;96958.52;127821;1090;113490;-87
2021/06/07 03:22:53;;;;;;;5.45;4.10;;;;;;;14.74;66.58;96961.88;127959;1090;26261;-88
2021/06/07 03:25:24;;;;;;;5.30;3.90;;;;;;;14.78;66.82;96962.89;127777;1090;113822;-88
2021/06/07 03:27:57;;;;;;;4.85;4.10;;;;;;;14.79;66.70;96959.13;127848;1091;44805;-88
2021/06/07 03:30:28;;;;;;;5.07;3.83;;;;;;;14.83;66.87;96970.78;127896;1090;26264;-85
2021/06/07 03:32:59;;;;;;;4.30;3.60;;;;;;;14.83;66.59;96970.00;127803;1089;114241;-86
2021/06/07 03:35:30;;;;;;;5.80;3.70;;;;;;;14.89;66.68;96968.01;127861;1090;22775;-85
2021/06/07 03:38:01;;;;;;;4.58;3.80;;;;;;;14.93;66.76;96963.68;127796;1090;113785;-85
2021/06/07 03:40:35;;;;;;;6.00;4.07;;;;;;;15.00;66.74;96964.84;127922;1090;22814;-85
2021/06/07 03:43:07;;;;;;;5.78;4.00;;;;;;;15.06;66.69;96958.34;127917;1090;22758;-86
2021/06/07 03:45:38;;;;;;;4.17;3.77;;;;;;;15.15;66.43;96958.41;127822;1090;113324;-86
2021/06/07 03:48:10;;;;;;;4.55;3.70;;;;;;;15.24;66.43;96967.31;127900;1090;22794;-86
2021/06/07 03:50:42;;;;;;;5.95;4.20;;;;;;;15.31;66.38;96965.01;127798;1090;114821;-87
2021/06/07 03:53:14;;;;;;;7.20;4.20;;;;;;;15.35;66.32;96971.36;127883;1090;26458;-87
2021/06/07 03:55:45;;;;;;;4.73;4.10;;;;;;;15.40;66.22;96963.22;127807;1093;114453;-86
2021/06/07 03:58:17;;;;;;;5.58;3.93;;;;;;;15.47;66.31;96968.14;127968;1090;27313;-86
2021/06/07 04:00:48;;;;;;;5.65;3.65;;;;;;;15.54;66.27;96973.09;127907;1090;24381;-86
2021/06/07 04:03:19;;;;;;;4.30;3.33;;;;;;;15.62;65.85;96967.05;127853;1090;114475;-86
2021/06/07 04:05:49;;;;;;;4.70;3.73;;;;;;;15.68;65.96;96969.32;127943;1093;22783;-85
2021/06/07 04:08:20;;;;;;;4.63;3.35;;;;;;;15.71;65.66;96970.59;127846;1090;113912;-85
2021/06/07 04:10:51;;;;;;;4.53;3.70;;;;;;;15.70;65.27;96963.67;127878;1090;26709;-84
2021/06/07 04:13:22;;;;;;;3.95;3.55;;;;;;;15.74;65.17;96969.98;127803;1090;114742;-86
2021/06/07 04:15:53;;;;;;;5.53;3.63;;;;;;;15.75;65.34;96974.23;127920;1090;23307;-88
2021/06/07 04:18:24;;;;;;;5.48;3.80;;;;;;;15.81;65.69;96972.25;127907;1090;27324;-84
2021/06/07 04:20:55;;;;;;;4.33;3.48;;;;;;;15.82;65.22;96979.97;127787;1090;114509;-87
2021/06/07 04:23:26;;;;;;;4.28;3.78;;;;;;;15.88;65.18;96976.08;127903;1090;22910;-86
2021/06/07 04:25:56;;;;;;;6.40;4.13;;;;;;;15.93;65.19;96978.64;127797;1090;114895;-87
2021/06/07 04:28:27;;;;;;;5.67;4.17;;;;;;;15.95;64.85;96976.45;127924;1090;28339;-87
2021/06/07 04:31:00;;;;;;;6.60;4.30;;;;;;;15.96;65.14;96974.57;127907;1090;23099;-86
2021/06/07 04:33:30;;;;;;;5.90;4.40;;;;;;;16.00;65.42;96976.33;127829;1090;113867;-86
2021/06/07 04:36:01;;;;;;;7.73;4.08;;;;;;;15.98;65.13;96978.52;127915;1090;24465;-86
2021/06/07 04:38:32;;;;;;;7.03;4.50;;;;;;;15.97;65.45;96982.28;127773;1093;114524;-87
2021/06/07 04:41:03;;;;;;;6.28;4.28;;;;;;;16.01;65.47;96983.25;127872;1090;27585;-86
2021/06/07 04:43:34;;;;;;;6.03;4.37;;;;;;;16.08;65.64;96985.52;127833;1090;113785;-87
2021/06/07 04:46:06;;;;;;;4.58;4.00;;;;;;;16.12;65.85;96977.67;127904;1090;22777;-86
2021/06/07 04:48:37;;;;;;;7.83;4.15;;;;;;;16.25;66.21;96990.19;127874;1090;24687;-87
2021/06/07 04:51:08;;;;;;;5.00;4.20;;;;;;;16.35;66.43;96984.59;127770;1090;113593;-87
2021/06/07 04:53:39;;;;;;;5.35;4.10;;;;;;;16.45;66.83;96987.00;127927;1090;22786;-87
2021/06/07 04:56:10;;;;;;;6.85;3.63;;;;;;;16.58;67.04;96990.69;127791;1093;113878;-87
2021/06/07 04:58:41;;;;;;;6.03;3.75;;;;;;;16.70;66.99;96992.83;127885;1090;25072;-87
2021/06/07 05:01:14;;;;;;;5.83;3.88;;;;;;;16.82;66.74;96995.73;117110;1090;7755236;-87
2021/06/07 05:03:45;;;;;;;5.40;3.78;;;;;;;16.97;66.76;96997.20;127815;1093;113783;-87
2021/06/07 05:06:16;;;;;;;5.08;3.95;;;;;;;17.12;66.61;96999.46;127842;1090;26002;-87
2021/06/07 05:08:47;;;;;;;5.87;4.13;;;;;;;17.15;66.06;96999.63;127819;1090;114735;-88
2021/06/07 05:11:18;;;;;;;6.60;4.10;;;;;;;17.17;65.43;96997.45;126259;1088;1979877;-86
2021/06/07 05:13:49;;;;;;;4.78;3.68;;;;;;;17.26;65.27;97002.02;127924;1093;114901;-86
2021/06/07 05:16:20;;;;;;;4.83;4.05;;;;;;;17.54;65.83;96994.52;127957;1090;37717;-85
2021/06/07 05:18:51;;;;;;;4.80;4.13;;;;;;;18.45;66.36;96999.75;127938;1093;23336;-85
2021/06/07 05:21:22;;;;;;;6.18;4.10;;;;;;;19.92;64.92;96998.28;127853;1090;113999;-85
2021/06/07 05:23:53;;;;;;;6.75;4.35;;;;;;;21.34;62.67;97006.64;127840;1091;45344;-92
2021/06/07 05:26:24;;;;;;;6.70;4.20;;;;;;;22.47;60.61;97008.40;127724;1090;114105;-89
2021/06/07 05:28:56;;;;;;;5.48;4.00;;;;;;;23.47;58.19;97010.90;127964;1090;47427;-88
2021/06/07 05:31:27;;;;;;;6.53;4.28;;;;;;;24.11;56.06;97001.48;127868;1090;114672;-86
2021/06/07 05:33:58;;;;;;;5.35;4.03;;;;;;;24.69;54.18;97004.16;127901;1090;23413;-86
2021/06/07 05:36:29;;;;;;;4.05;3.15;;;;;;;25.07;53.31;97010.66;127958;1090;25215;-86
2021/06/07 05:39:00;;;;;;;6.73;3.90;;;;;;;25.45;51.66;97005.04;128082;1090;114097;-82
2021/06/07 05:41:31;;;;;;;6.25;3.60;;;;;;;25.76;50.51;97008.64;127932;1090;29041;-88
2021/06/07 05:44:02;;;;;;;5.33;3.90;;;;;;;25.97;49.28;97010.84;127795;1093;113701;-87
2021/06/07 05:46:33;;;;;;;5.70;3.55;;;;;;;25.83;47.64;97016.08;128039;1090;24078;-85
2021/06/07 05:49:03;;;;;;;4.15;3.38;;;;;;;25.06;48.20;97014.52;128150;1092;22786;-86
2021/06/07 05:51:34;;;;;;;5.35;3.53;;;;;;;24.52;47.80;97018.97;128005;1091;113875;-86
2021/06/07 05:54:06;;;;;;;5.80;3.78;;;;;;;24.42;48.84;97016.83;128144;1090;26305;-86
2021/06/07 05:56:37;;;;;;;4.40;3.43;;;;;;;24.51;48.26;97016.62;127924;1090;113504;-86
2021/06/07 05:59:08;;;;;;;5.20;3.78;;;;;;;24.75;47.66;97016.27;128126;1090;22840;-86
2021/06/07 06:01:40;;;;;;;4.63;3.30;;;;;;;25.27;48.03;97024.92;127934;1093;114922;-88
2021/06/07 06:04:10;;;;;;;4.93;3.60;;;;;;;25.78;47.41;97016.41;127885;1090;22783;-87
2021/06/07 06:06:41;;;;;;;4.50;3.50;;;;;;;25.84;46.38;97026.58;127912;1090;26402;-87
2021/06/07 06:09:12;;;;;;;5.93;3.78;;;;;;;25.69;46.11;97027.53;127798;1090;114342;-84
2021/06/07 06:11:43;;;;;;;5.63;3.23;;;;;;;26.20;46.80;97021.62;127890;1090;22793;-89
2021/06/07 06:14:14;;;;;;;5.10;3.95;;;;;;;26.78;45.17;97021.89;127773;1090;113908;-87
2021/06/07 06:16:45;;;;;;;5.28;3.60;;;;;;;26.51;43.72;97031.32;127947;1090;26120;-86
2021/06/07 06:19:16;;;;;;;5.25;3.10;;;;;;;26.17;44.59;97028.55;127990;1090;22930;-86
2021/06/07 06:21:47;;;;;;;4.20;3.45;;;;;;;26.70;44.75;97033.06;127851;1090;113815;-85
2021/06/07 06:24:19;;;;;;;4.05;3.20;;;;;;;27.48;44.46;97033.80;127948;1093;23640;-85
2021/06/07 06:26:49;;;;;;;7.43;3.10;;;;;;;27.95;43.05;97034.89;127885;1093;114169;-86
2021/06/07 06:29:20;;;;;;;4.03;3.13;;;;;;;28.37;42.39;97040.56;127983;1090;22964;-85
2021/06/07 06:31:53;;;;;;;5.75;3.68;;;;;;;28.85;41.59;97037.56;127837;1093;113858;-85
2021/06/07 06:34:24;;;;;;;5.48;3.00;;;;;;;28.79;41.30;97038.34;127898;1090;22819;-84
2021/06/07 06:37:09;;;;;;;3.56;3.08;;;;;;;28.86;41.51;97028.24;124916;1090;4043626;-84
2021/06/07 06:39:47;;;;;;;5.95;3.23;;;;;;;28.83;40.94;97026.27;126037;1093;1921117;-84
2021/06/07 06:42:18;;;;;;;5.03;3.30;;;;;;;27.84;39.78;97031.31;128117;1090;30228;-84
2021/06/07 06:44:49;;;;;;;4.80;3.03;;;;;;;27.60;40.21;97033.50;128084;1090;113904;-84
2021/06/07 06:47:20;;;;;;;5.53;3.70;;;;;;;27.74;41.13;97036.34;128236;1089;30882;-87
2021/06/07 06:49:51;;;;;;;5.80;3.20;;;;;;;28.23;40.21;97029.58;127862;1090;113216;-89
2021/06/07 06:52:22;;;;;;;5.00;3.58;;;;;;;27.88;39.86;97034.87;127910;1090;23628;-87
2021/06/07 06:54:53;;;;;;;8.03;3.50;;;;;;;27.76;40.76;97044.13;127905;1090;24396;-87
2021/06/07 06:57:24;;;;;;;8.18;3.28;;;;;;;27.91;39.82;97034.10;127849;1090;113491;-86
2021/06/07 06:59:56;;;;;;;7.35;3.53;;;;;;;27.60;39.94;97041.67;127888;1090;26702;-88
2021/06/07 07:02:28;;;;;;;6.63;4.20;;;;;;;27.25;39.82;97046.83;127740;1090;114723;-88
2021/06/07 07:04:59;;;;;;;5.40;3.38;;;;;;;27.03;41.27;97040.44;127772;1090;38361;-88
2021/06/07 07:07:31;;;;;;;4.40;3.08;;;;;;;27.62;41.91;97050.23;127804;1090;113687;-87
2021/06/07 07:10:03;;;;;;;5.18;3.18;;;;;;;28.49;41.62;97046.84;127758;1090;28504;-91
2021/06/07 07:12:34;;;;;;;6.23;2.98;;;;;;;29.28;40.68;97048.59;127884;1091;24400;-93
2021/06/07 07:15:08;;;;;;;5.30;3.30;;;;;;;28.94;39.51;97040.74;127866;1090;114104;-87
2021/06/07 07:17:38;;;;;;;4.38;3.35;;;;;;;28.38;38.55;97053.03;127917;1090;26534;-91
2021/06/07 07:20:11;;;;;;;4.15;3.53;;;;;;;27.96;39.59;97058.25;127806;1090;113720;-87
2021/06/07 07:22:43;;;;;;;4.65;3.03;;;;;;;28.08;40.35;97052.48;127964;1090;24738;-87
2021/06/07 07:25:15;;;;;;;4.55;3.33;;;;;;;28.57;40.56;97060.11;127922;1090;26110;-90
2021/06/07 07:27:46;;;;;;;5.70;3.50;;;;;;;28.89;40.27;97054.78;127808;1090;113495;-87
2021/06/07 07:30:22;;;;;;;5.85;3.70;;;;;;;29.38;39.45;97047.01;127877;1090;26943;-88
2021/06/07 07:32:54;;;;;;;6.93;3.60;;;;;;;29.48;38.49;97057.97;127853;1090;113486;-88
2021/06/07 07:35:25;;;;;;;7.50;4.00;;;;;;;29.01;38.53;97059.09;127897;1090;28635;-89
2021/06/07 07:37:56;;;;;;;6.83;4.68;;;;;;;28.32;37.96;97054.58;127723;1090;114122;-89
2021/06/07 07:40:28;;;;;;;8.23;5.28;;;;;;;27.85;39.17;97054.68;127885;1093;23335;-87
2021/06/07 07:42:59;;;;;;;8.23;5.80;;;;;;;26.95;39.43;97050.43;127889;1089;24663;-87
2021/06/07 07:45:31;;;;;;;6.95;5.03;;;;;;;26.37;40.87;97058.34;127793;1090;114466;-89
2021/06/07 07:48:09;;;;;;;6.68;4.73;;;;;;;26.23;41.21;97058.92;127896;1090;23536;-89
2021/06/07 07:50:40;;;;;;;6.33;4.08;;;;;;;26.52;41.28;97055.42;128998;1091;113952;-88
2021/06/07 07:53:11;;;;;;;5.88;4.03;;;;;;;27.03;41.42;97054.83;127932;1088;23131;-89
2021/06/07 07:55:42;;;;;;;4.63;4.18;;;;;;;27.18;41.65;97050.29;127801;1091;113693;-89
2021/06/07 07:58:13;;;;;;;6.03;3.65;;;;;;;27.80;41.48;97059.33;127951;1090;26258;-87
2021/06/07 08:00:47;;;;;;;6.10;3.88;;;;;;;27.67;38.35;97057.30;127982;1090;29281;-90
2021/06/07 08:03:18;;;;;;;7.30;3.60;;;;;;;27.06;40.55;97054.07;127842;1090;113519;-90
2021/06/07 08:05:49;;;;;;;5.30;3.48;;;;;;;27.27;40.26;97052.67;127939;1090;30669;-87
2021/06/07 08:08:21;;;;;;;5.83;3.35;;;;;;;27.47;39.79;97057.53;127791;1090;113591;-88
2021/06/07 08:10:55;;;;;;;6.55;3.50;;;;;;;27.11;39.82;97048.27;127879;1090;22786;-88
2021/06/07 08:13:26;;;;;;;3.38;2.60;;;;;;;26.90;39.86;97059.72;127844;1090;28075;-89
2021/06/07 08:15:58;;;;;;;4.55;3.50;;;;;;;26.60;39.29;97056.27;127790;1090;113944;-87
2021/06/07 08:18:29;;;;;;;4.48;3.43;;;;;;;26.16;40.45;97056.88;127880;1090;22841;-86
2021/06/07 08:21:00;;;;;;;4.78;3.48;;;;;;;26.01;41.05;97057.84;127697;1090;115089;-88
2021/06/07 08:23:30;;;;;;;5.30;3.70;;;;;;;25.88;41.05;97064.65;127820;1090;23443;-93
2021/06/07 08:26:01;;;;;;;4.13;3.63;;;;;;;25.78;41.77;97068.02;127785;1090;113689;-89
2021/06/07 08:28:32;;;;;;;4.23;3.28;;;;;;;26.28;42.95;97061.30;127867;1090;26405;-93
2021/06/07 08:31:03;;;;;;;4.13;2.70;;;;;;;27.24;41.63;97072.49;127856;1090;27217;-89
2021/06/07 08:33:36;;;;;;;4.83;3.33;;;;;;;28.05;40.60;97061.43;127801;1090;113988;-89
2021/06/07 08:36:08;;;;;;;5.77;3.20;;;;;;;28.63;40.87;97058.59;127919;1090;22915;-93
2021/06/07 08:38:41;;;;;;;3.50;3.00;;;;;;;28.89;39.04;97062.19;127702;1090;113511;-91
2021/06/07 08:41:12;;;;;;;4.38;2.33;;;;;;;29.00;38.43;97056.73;127821;1090;22718;-88
2021/06/07 08:43:43;;;;;;;3.28;2.58;;;;;;;29.12;37.22;97061.81;127588;1090;113651;-87
2021/06/07 08:46:14;;;;;;;4.75;2.70;;;;;;;29.22;38.50;97061.05;127742;1090;50552;-88
2021/06/07 08:48:45;;;;;;;4.70;2.90;;;;;;;28.68;36.17;97065.60;127764;1093;28199;-88
2021/06/07 08:51:17;;;;;;;5.87;2.83;;;;;;;27.23;36.40;97054.59;127679;1092;113520;-87
2021/06/07 08:53:48;;;;;;;4.05;2.58;;;;;;;26.74;37.66;97059.14;127945;1090;28538;-89
2021/06/07 08:56:20;;;;;;;3.55;2.25;;;;;;;26.35;37.38;97066.84;127867;1091;114695;-85
2021/06/07 08:58:51;;;;;;;6.17;2.23;;;;;;;26.18;37.48;97068.19;127953;1090;22783;-89
2021/06/07 09:01:22;;;;;;;3.45;2.53;;;;;;;26.08;38.42;97057.96;128013;1088;37565;-86
2021/06/07 09:03:53;;;;;;;3.28;2.48;;;;;;;26.32;39.48;97056.69;127889;1090;113357;-87
2021/06/07 09:06:29;;;;;;;6.08;3.00;;;;;;;26.72;39.67;97056.02;127867;1090;25591;-89
2021/06/07 09:09:07;;;;;;;5.83;3.05;;;;;;;26.80;38.05;97049.50;127790;1090;113517;-89
2021/06/07 09:11:48;;;;;;;4.70;2.80;;;;;;;26.35;38.50;97047.81;127889;1090;26264;-92
2021/06/07 09:14:18;;;;;;;;;;;;;;;25.75;39.34;97045.06;127906;1093;114628;-87
2021/06/07 09:16:49;;;;;;;6.45;3.08;;;;;;;25.55;38.50;97051.73;127843;1090;38038;-88
2021/06/07 09:19:27;;;;;;;4.88;3.00;;;;;;;25.50;39.00;97043.91;127905;1090;32072;-90
2021/06/07 09:22:19;;;;;;;4.40;3.00;;;;;;;25.54;40.33;97044.73;127712;1090;113326;-90
2021/06/07 09:28:12;;;;;;;6.00;2.90;;;;;;;25.76;39.63;97057.52;127465;1093;31255;-86
2021/06/07 09:30:48;;;;;;;8.15;3.80;;;;;;;25.39;38.90;97049.95;127461;1092;28276;-90
2021/06/07 09:33:34;;;;;;;3.98;2.95;;;;;;;25.20;38.94;97044.60;127459;1093;113833;-89
2021/06/07 09:36:23;;;;;;;3.10;2.63;;;;;;;25.31;40.09;97047.47;127533;1093;47955;-92
2021/06/07 09:39:09;;;;;;;3.80;2.50;;;;;;;25.62;40.12;97043.70;127400;1093;113843;-85
2021/06/07 09:41:56;;;;;;;4.95;2.93;;;;;;;25.40;38.58;97039.88;127507;1092;25965;-85
2021/06/07 09:44:41;;;;;;;4.88;2.90;;;;;;;25.27;40.04;97035.78;127411;1093;113192;-84
2021/06/07 09:47:20;;;;;;;5.53;3.23;;;;;;;25.09;40.42;97046.34;127642;1093;24470;-84
2021/06/07 09:49:55;;;;;;;6.45;3.00;;;;;;;25.21;41.55;97038.03;127592;1093;114894;-84
2021/06/07 09:52:29;;;;;;;4.57;2.77;;;;;;;25.14;40.18;97046.82;127611;1093;28001;-80
2021/06/07 09:55:13;;;;;;;3.65;2.90;;;;;;;24.79;38.80;97040.77;127614;1093;26311;-79
2021/06/07 09:57:53;;;;;;;4.78;3.10;;;;;;;24.36;38.59;97047.30;127487;1092;113317;-80
2021/06/07 10:00:47;;;;;;;4.47;3.00;;;;;;;24.12;39.13;97043.69;127583;1092;23829;-85
2021/06/07 10:03:21;;;;;;;4.53;2.70;;;;;;;24.00;39.81;97043.81;127518;1093;113350;-84
2021/06/07 10:05:55;;;;;;;3.90;3.20;;;;;;;24.27;40.58;97028.50;127518;1093;32868;-84
2021/06/07 10:08:39;;;;;;;5.65;3.40;;;;;;;24.27;40.57;97032.00;127699;1092;114811;-84
2021/06/07 10:11:21;;;;;;;6.73;2.90;;;;;;;24.24;40.82;97046.27;128033;1091;24956;-85
2021/06/07 10:14:04;;;;;;;4.03;3.00;;;;;;;24.19;41.07;97040.33;127986;1093;114438;-83
2021/06/07 10:16:36;;;;;;;3.48;2.88;;;;;;;24.18;41.38;97042.25;128010;1093;43799;-83
2021/06/07 10:19:15;;;;;;;4.38;3.03;;;;;;;24.48;42.26;97039.00;128061;1091;23238;-83
2021/06/07 10:21:48;;;;;;;4.35;2.50;;;;;;;24.75;41.88;97040.67;127924;1092;113356;-81
2021/06/07 10:24:20;;;;;;;3.58;3.23;;;;;;;24.70;40.40;97027.42;128848;1091;31916;-82
2021/06/07 10:26:51;;;;;;;5.03;3.05;;;;;;;24.28;39.67;97030.86;127787;1092;113381;-81
2021/06/07 10:29:23;;;;;;;5.10;2.95;;;;;;;23.94;40.95;97034.41;127865;1092;24102;-82
2021/06/07 10:31:54;;;;;;;4.28;2.98;;;;;;;23.83;40.77;97026.05;127720;1091;113545;-81
2021/06/07 10:34:44;;;;;;;3.85;2.65;;;;;;;23.62;40.22;97037.17;127799;1092;24294;-81
2021/06/07 10:37:14;;;;;;;;;;;;;;;23.35;38.69;97032.64;128040;1093;23065;-82
2021/06/07 10:39:45;;;;;;;5.25;2.48;;;;;;;23.20;38.70;97033.44;128047;1091;99651;-81
2021/06/07 10:42:26;;;;;;;7.63;2.78;;;;;;;23.18;39.03;97033.80;127898;1092;22790;-82
2021/06/07 10:45:04;;;;;;;4.38;3.13;;;;;;;23.32;38.52;97030.64;127761;1093;113327;-82
2021/06/07 10:47:46;;;;;;;5.63;2.80;;;;;;;23.65;39.22;97025.66;127895;1093;22787;-85
2021/06/07 10:50:21;;;;;;;4.60;3.40;;;;;;;23.68;38.54;97016.83;127806;1093;114253;-84
2021/06/07 10:52:54;;;;;;;6.73;3.10;;;;;;;23.74;38.43;97027.38;127859;1092;25513;-84
2021/06/07 10:55:28;;;;;;;3.45;2.90;;;;;;;23.57;38.04;97031.23;127867;1093;22943;-83
2021/06/07 10:58:01;;;;;;;5.15;2.70;;;;;;;23.68;38.75;97030.38;127802;1093;114302;-85
2021/06/07 11:00:38;;;;;;;4.08;2.90;;;;;;;23.83;38.28;97023.34;127856;1093;23456;-89
2021/06/07 11:03:20;;;;;;;3.90;2.80;;;;;;;24.08;38.96;97029.30;127838;1093;113573;-86
2021/06/07 11:05:54;;;;;;;3.93;2.70;;;;;;;24.35;39.20;97013.19;127934;1093;22928;-86
2021/06/07 11:08:32;;;;;;;4.58;2.33;;;;;;;24.59;38.50;97012.88;127753;1093;113360;-85
2021/06/07 11:11:09;;;;;;;5.40;2.90;;;;;;;24.68;37.78;97009.95;127869;1092;24365;-83
2021/06/07 11:13:49;;;;;;;3.28;2.30;;;;;;;24.66;37.37;97007.60;127791;1093;113670;-85
2021/06/07 11:16:28;;;;;;;;;;;;;;;24.68;36.43;96997.17;127970;1093;22839;-86
2021/06/07 11:19:01;;;;;;;3.50;2.73;;;;;;;24.68;38.03;97008.02;127896;1093;24201;-84
2021/06/07 11:21:35;;;;;;;4.25;2.63;;;;;;;24.69;37.88;97011.52;127802;1093;113789;-85
2021/06/07 11:24:31;;;;;;;4.55;2.78;;;;;;;24.75;37.73;97004.64;127883;1093;31008;-85
2021/06/07 11:27:05;;;;;;;3.78;2.70;;;;;;;24.83;37.85;97006.34;127753;1091;113499;-83
2021/06/07 11:29:36;;;;;;;5.28;2.53;;;;;;;24.77;37.62;97005.05;127839;1093;24938;-83
2021/06/07 11:32:14;;;;;;;3.65;2.45;;;;;;;24.82;37.08;96994.71;127744;1093;113625;-85
2021/06/07 11:34:47;;;;;;;7.75;2.55;;;;;;;24.88;36.96;96998.68;127879;1093;24308;-86
2021/06/07 11:37:34;;;;;;;3.40;2.65;;;;;;;24.55;35.91;96996.55;127915;1092;26495;-85
2021/06/07 11:40:07;;;;;;;4.03;2.48;;;;;;;24.03;35.72;96990.85;127783;1093;113279;-85
2021/06/07 11:42:55;;;;;;;4.15;2.25;;;;;;;23.84;37.01;96997.05;127858;1093;27564;-85
2021/06/07 11:45:41;;;;;;;2.93;2.45;;;;;;;23.94;36.64;96983.73;127759;1093;114038;-84
2021/06/07 11:48:12;;;;;;;4.78;2.30;;;;;;;24.14;36.06;96995.34;127900;1093;24389;-86
2021/06/07 11:50:43;;;;;;;3.63;2.20;;;;;;;24.15;35.43;96990.72;127807;1093;113312;-85